マイアミ国際空港の過去48時間の天気

マイアミ国際空港 (Miami, Miami International Airport)

現在時刻: 1/24 07:19 EST (1/24 12:19 UTC) 以下の時間は現地時間です。

過去48時間のMETAR気象情報
時間 風向 風速(m/s) 視程 気温(℃) 湿度(%) 気圧(hPa) 天気現象
24 06:53 静穏 0 10km以上 18.9 87 1016.5
24 05:53 静穏 0 10km以上 18.3 93 1015.6
24 04:53 静穏 0 10km以上 18.3 87 1015.2
24 03:53 北北西 3 10km以上 18.9 87 1015.5
24 02:53 静穏 0 10km以上 17.8 90 1015.4
24 01:53 静穏 0 10km以上 18.9 87 1015.7
24 00:53 不定 2 10km以上 19.4 87 1016.2 弱い雨
23 23:53 3 10km以上 19.4 87 1016.7 もや
23 23:20 北北西 2 10km以上 19.4 90 1017 弱い雨 もや
23 23:10 北西 2 6450m 19.4 90 1017 弱い雨 もや
23 22:53 西 2 6450m 19.4 90 1017.1 弱い雨 もや
23 22:17 北西 2 10km以上 19.4 90 1017
23 21:53 西 2 10km以上 19.4 90 1017 弱い雨 もや
23 20:53 西北西 2 10km以上 19.4 87 1017 弱い雨 もや
23 19:53 西 2 10km以上 19.4 87 1016.7 弱い雨 もや
23 19:22 北北西 2 6450m 19.4 90 1017 強い雨 もや
23 18:53 北西 2 8050m 19.4 87 1016.2 雨 もや
23 17:53 北北西 2 10km以上 21.1 78 1015.9 弱い雨
23 17:12 東北東 3 4850m 21.1 76 1016 強い雨 もや
23 16:53 北北東 4 10km以上 21.1 76 1015.7
23 15:53 北東 4 10km以上 20.6 81 1015.4 弱い雨
23 14:53 東北東 6 10km以上 21.7 73 1015.4 弱い雨
23 13:53 7 10km以上 23.9 62 1015.6
23 12:53 東北東 4 10km以上 23.9 62 1016.1
23 11:53 東南東 3 10km以上 24.4 58 1016.9
23 10:53 北西 3 10km以上 21.7 63 1017.7
23 09:53 3 10km以上 18.9 73 1017.7
23 08:53 北北西 3 6450m 16.1 83 1017.3 煙霧
23 08:47 北北西 2 4850m 16 82 1017 もや
23 07:53 3 1200m 14.4 90 1016.7 もや
23 07:28 3 1200m 14.4 90 1017 もや
23 06:53 北北西 3 3200m 14.4 90 1016.5 もや
23 05:53 2 3200m 14.4 90 1015.9 弱い雨 もや
23 05:49 北北西 3 3200m 14 94 1016 もや
23 04:53 北西 3 4850m 14.4 90 1016.4 弱い雨 もや
23 03:53 北西 2 4850m 14.4 90 1016.3 もや
23 03:31 北北西 2 800m 14.4 90 1017
23 02:56 不定 2 0m 14.4 90 1016
23 02:53 3 3200m 14.4 90 1016.4 もや
23 01:53 北西 2 4850m 15 87 1016.9 もや
23 00:53 北北西 3 6450m 14.4 87 1017.2 もや
22 23:53 北西 3 10km以上 13.9 87 1017.7 もや
22 22:53 北北西 3 10km以上 13.9 83 1018
22 22:06 北北西 5 10km以上 13.9 80 1018
22 21:53 北北西 3 10km以上 13.9 80 1017.5
22 21:08 北北西 6 10km以上 13.9 77 1018
22 20:53 北北西 6 10km以上 13.9 77 1017.3
22 19:53 北北西 6 10km以上 15 69 1017.2
22 18:53 北西 3 10km以上 15.6 62 1016.8
22 17:53 北北西 4 10km以上 15.6 62 1016.3
22 16:53 北北西 5 10km以上 16.7 52 1015.8
22 15:53 北北西 6 10km以上 16.7 50 1015.8
22 14:53 北西 6 10km以上 16.1 50 1016
22 13:53 北西 7 10km以上 16.1 46 1016
22 12:53 北西 6 10km以上 15 47 1016.6
22 11:53 北西 5 10km以上 12.8 48 1017.5
22 10:53 西北西 4 10km以上 11.1 50 1018.7
22 09:53 西北西 5 10km以上 7.8 55 1019.6
22 08:53 北西 5 10km以上 6.7 58 1019.3
22 07:53 北西 4 10km以上 5 62 1019.6
KMIA 241153Z 00000KT 10SM SCT030 BKN045 BKN250 19/17 A3002 RMK AO2 RAB44E53 SLP165 P0000 60000 70031 T01890167 53009 $
KMIA 241053Z 00000KT 10SM FEW034 OVC250 18/17 A2999 RMK AO2 SLP156 T01830172 $
KMIA 240953Z 00000KT 10SM FEW030 BKN250 18/16 A2998 RMK AO2 SLP152 T01830161 $
KMIA 240853Z 34006KT 10SM FEW030 FEW050 BKN250 19/17 A2999 RMK AO2 SLP155 60000 T01890167 55007 $
KMIA 240753Z 00000KT 10SM FEW030 FEW042 SCT250 18/16 A2999 RMK AO2 SLP154 T01780161 $
KMIA 240653Z 00000KT 9SM FEW032 SCT050 SCT070 19/17 A2999 RMK AO2 RAE09 SLP157 P0000 T01890167 $
KMIA 240553Z VRB03KT 8SM -RA SCT030 BKN055 BKN080 19/17 A3001 RMK AO2 RAB35 SLP162 P0000 60022 T01940172 10194 20194 58008 $
KMIA 240453Z 35005KT 6SM BR FEW010 SCT028 OVC060 19/17 A3002 RMK AO2 RAE48 SLP167 P0001 T01940172 402440139 $
KMIA 240420Z 33003KT 6SM -RA BR SCT028 BKN060 OVC080 19/18 A3003 RMK AO2 P0000 T01940178 $
KMIA 240410Z 32003KT 4SM -RA BR FEW005 BKN028 OVC055 19/18 A3003 RMK AO2 P0000 T01940178 $
KMIA 240353Z 27003KT 4SM -RA BR FEW005 BKN030 OVC075 19/18 A3004 RMK AO2 RAE07B46 SLP171 P0000 T01940178 $
KMIA 240317Z 31003KT 8SM FEW007 SCT032 OVC065 19/18 A3004 RMK AO2 RAE07 P0000 T01940178 $
KMIA 240253Z 27003KT 6SM -RA BR BKN029 BKN039 OVC049 19/18 A3004 RMK AO2 SLP170 P0009 60021 T01940178 51008 $
KMIA 240153Z 29003KT 6SM -RA BR FEW015 BKN026 OVC049 19/17 A3003 RMK AO2 SLP170 P0002 T01940172 $
KMIA 240053Z 28004KT 6SM -RA BR SCT007 BKN029 OVC070 19/17 A3002 RMK AO2 SLP167 P0010 T01940172 $
KMIA 240022Z 33003KT 4SM +RA BR FEW005 BKN023 OVC030 19/18 A3002 RMK AO2 P0007 T01940178 $
KMIA 232353Z 31003KT 5SM RA BR BKN025 OVC035 19/17 A3001 RMK AO2 RAE2256B13 SLP162 P0001 60009 T01940172 52008 $
KMIA 232253Z 34004KT 10SM -RA FEW020 BKN028 OVC040 21/17 A3000 RMK AO2 RAB02 SLP159 P0008 T02110172 $
KMIA 232212Z 06006G16KT 3SM R09/3500VP6000FT +RA BR FEW011 BKN028 OVC042 21/17 A3000 RMK AO2 RAB02 P0002 T02110167 $
KMIA 232153Z 03007KT 8SM SCT025 BKN035 OVC075 21/17 A3000 RMK AO2 RAE02 SLP157 P0000 T02110167 $
KMIA 232053Z 05008KT 7SM -RA SCT027 BKN036 OVC070 21/17 A2999 RMK AO2 RAE04B36 SLP154 P0000 60000 T02060172 56007
KMIA 231953Z 07011KT 8SM -RA BKN030 BKN045 BKN080 22/17 A2999 RMK AO2 RAB50 SLP154 P0000 T02170167
KMIA 231853Z 08013KT 8SM BKN030 BKN050 BKN080 24/16 A2999 RMK AO2 RAB09E25 SLP156 P0000 T02390161
KMIA 231753Z 07008KT 10SM SCT032 SCT050 BKN080 24/16 A3001 RMK AO2 RAB16E39 SLP161 P0000 60000 T02390161 10244 20144 58016
KMIA 231653Z 11006KT 10SM FEW006 BKN032 BKN050 24/16 A3003 RMK AO2 SLP169 T02440156
KMIA 231553Z 32005KT 9SM FEW006 SCT034 SCT060 22/14 A3005 RMK AO2 SLP177 T02170144
KMIA 231453Z 35005KT 7SM FEW003 SCT034 SCT060 19/14 A3006 RMK AO2 SLP177 T01890139 53012
KMIA 231353Z 33006KT 4SM HZ SCT003 SCT030 BKN050 16/13 A3004 RMK AO2 SLP173 T01610133
KMIA 231347Z 33004KT 3SM BR BKN003 BKN025 BKN050 16/13 A3004 RMK AO2
KMIA 231253Z VRB05KT 3/4SM BR OVC003 14/13 A3002 RMK AO2 SLP167 T01440128 RVRNO
KMIA 231228Z VRB05KT 3/4SM R09/P6000FT BR OVC003 14/13 A3003 RMK AO2 T01440128 $
KMIA 231153Z 34005KT 2SM BR BKN003 BKN035 BKN060 14/13 A3002 RMK AO2 RAE02 SLP165 P0000 60000 T01440128 10150 20144 53002 $
KMIA 231053Z 35004KT 2SM -RA BR OVC003 14/13 A3000 RMK AO2 RAE0957B53 SLP159 VIS SW-NW 1 1/4 P0000 T01440128 $
KMIA 231049Z 34005KT 2SM BR OVC003 14/13 A3000 RMK AO2 RAE0957 VIS SW-NW 1 1/4 P0000 $
KMIA 230953Z 32005KT 3SM -RA BR OVC004 14/13 A3002 RMK AO2 RAB44 SLP164 VIS SW-NW 1 1/2 P0000 T01440128 $
KMIA 230853Z 31004KT 3SM BR BKN004 BKN037 OVC060 14/13 A3001 RMK AO2 SLP163 60000 T01440128 56009 $
KMIA 230831Z COR 33004KT 1/2SM R09/P6000FT FG OVC003 14/13 A3002 RMK AO2 SFC VIS 2 1/2 T01440128 $
KMIA 230756Z COR VRB04KT 0SM R09/P6000FT FG OVC002 14/13 A3001 RMK AO2 SFC VIS 1 3/4 T01440128 $
KMIA 230753Z 35006KT 2SM BR OVC003 14/13 A3002 RMK AO2 RAB42E52 SLP164 P0000 T01440128
KMIA 230653Z 32003KT 3SM BR OVC004 15/13 A3003 RMK AO2 RAB20E32 SLP169 P0000 T01500128
KMIA 230553Z 33005KT 4SM BR OVC005 14/12 A3004 RMK AO2 RAB14E25 SLP172 P0000 60000 T01440122 10156 20139 58003
KMIA 230453Z 31005KT 6SM BR OVC006 14/12 A3005 RMK AO2 SLP177 T01390117 401720044
KMIA 230353Z 33005KT 8SM OVC007 14/11 A3006 RMK AO2 SLP180 T01390111
KMIA 230306Z 33009KT 10SM OVC009 14/11 A3006 RMK AO2 T01390106
KMIA 230253Z 34006KT 10SM BKN010 14/11 A3005 RMK AO2 SLP175 T01390106 51007
KMIA 230208Z 34011G18KT 10SM OVC011 14/10 A3005 RMK AO2 T01390100
KMIA 230153Z 33012G19KT 10SM SCT013 SCT030 14/10 A3004 RMK AO2 SLP173 T01390100
KMIA 230053Z COR 34011KT 10SM FEW032 15/09 A3004 RMK AO2 SLP172 T01500094
KMIA 222353Z 32006KT 10SM SCT032 SCT043 16/08 A3003 RMK AO2 SLP168 T01560083 10172 20150 53010
KMIA 222253Z 33008KT 10SM FEW048 SCT250 16/08 A3001 RMK AO2 SLP163 T01560083
KMIA 222153Z 33009G16KT 10SM FEW048 SCT250 17/07 A3000 RMK AO2 SLP158 T01670067
KMIA 222053Z 33011G17KT 10SM FEW050 FEW250 17/06 A3000 RMK AO2 SLP158 T01670061 56008
KMIA 221953Z 32012G18KT 10SM FEW065 FEW250 16/06 A3000 RMK AO2 SLP160 T01610056
KMIA 221853Z 32013G22KT 10SM FEW065 16/04 A3000 RMK AO2 SLP160 T01610044
KMIA 221753Z 32012G20KT 10SM FEW065 SCT075 15/04 A3002 RMK AO2 SLP166 T01500039 10150 20044 57030
KMIA 221653Z 32009KT 10SM FEW075 13/02 A3005 RMK AO2 SLP175 T01280022
KMIA 221553Z 29007G19KT 10SM FEW030 11/01 A3009 RMK AO2 SLP187 T01110011
KMIA 221453Z 30009G17KT 10SM FEW030 08/M01 A3011 RMK AO2 SLP196 T00781006 55000
KMIA 221353Z 31009G17KT 10SM FEW030 07/M01 A3010 RMK AO2 SLP193 T00671011
KMIA 221253Z 32008G17KT 10SM FEW030 05/M02 A3011 RMK AO2 SLP196 T00501017